createdAt,value
2019-05-26T00:01:11.229Z,28.40
2019-05-26T00:04:32.898Z,26.77
2019-05-26T00:07:01.592Z,27.05
2019-05-26T00:09:28.652Z,29.95
2019-05-26T00:11:55.538Z,26.95
2019-05-26T00:14:22.286Z,25.20
2019-05-26T00:16:49.210Z,26.95
2019-05-26T00:19:15.824Z,27.00
2019-05-26T00:21:42.577Z,25.32
2019-05-26T00:24:09.376Z,27.58
2019-05-26T00:26:36.008Z,28.02
2019-05-26T00:36:15.693Z,30.17
2019-05-26T00:38:42.724Z,32.45
2019-05-26T00:41:10.182Z,27.22
2019-05-26T00:43:37.014Z,24.10
2019-05-26T00:46:03.723Z,23.55
2019-05-26T00:48:30.520Z,21.73
2019-05-26T00:50:57.206Z,21.75
2019-05-26T00:53:23.950Z,18.82
2019-05-26T00:55:51.159Z,22.07
2019-05-26T00:58:35.592Z,20.05
2019-05-26T01:01:02.627Z,19.82
2019-05-26T01:03:29.192Z,22.85
2019-05-26T01:05:55.883Z,24.82
2019-05-26T01:08:22.367Z,25.25
2019-05-26T01:10:49.266Z,23.83
2019-05-26T01:13:16.055Z,29.40
2019-05-26T01:15:42.835Z,19.30
2019-05-26T01:18:09.477Z,22.07
2019-05-26T01:20:36.019Z,21.17
2019-05-26T01:23:03.418Z,25.35
2019-05-26T01:25:30.717Z,26.33
2019-05-26T01:27:57.709Z,26.97
2019-05-26T01:30:37.768Z,29.77
2019-05-26T01:51:44.787Z,28.10
2019-05-26T02:11:28.988Z,25.12
2019-05-26T02:16:44.427Z,26.27
2019-05-26T02:19:11.741Z,26.17
2019-05-26T02:28:51.419Z,34.38
2019-05-26T02:42:10.687Z,26.17
2019-05-26T02:44:37.345Z,27.98
2019-05-26T02:47:04.433Z,26.95
2019-05-26T02:53:02.185Z,26.25
2019-05-26T02:59:00.506Z,27.52
2019-05-26T03:01:28.285Z,21.42
2019-05-26T03:25:59.275Z,27.30
2019-05-26T03:28:26.490Z,25.30
2019-05-26T03:30:53.868Z,32.33
2019-05-26T03:33:21.114Z,24.50
2019-05-26T03:35:47.957Z,22.52
2019-05-26T03:38:14.602Z,28.98
2019-05-26T03:40:41.461Z,26.75
2019-05-26T03:43:08.129Z,23.98
2019-05-26T03:45:45.989Z,24.25
2019-05-26T03:48:12.664Z,24.95
2019-05-26T03:50:39.370Z,20.35
2019-05-26T03:53:24.921Z,24.60
2019-05-26T03:55:52.059Z,27.90
2019-05-26T04:32:06.033Z,23.73
2019-05-26T04:34:33.262Z,18.00
2019-05-26T04:37:01.113Z,21.35
2019-05-26T04:39:28.328Z,22.10
2019-05-26T04:41:55.304Z,20.68
2019-05-26T04:44:22.491Z,23.90
2019-05-26T04:46:49.595Z,28.00
2019-05-26T04:49:16.886Z,20.30
2019-05-26T04:51:46.924Z,21.00
2019-05-26T04:54:14.095Z,22.25
2019-05-26T04:56:41.076Z,24.15
2019-05-26T04:59:09.111Z,25.48
2019-05-26T05:01:36.335Z,23.10
2019-05-26T05:11:14.814Z,23.65
2019-05-26T05:13:42.045Z,27.30
2019-05-26T05:16:09.102Z,26.30
2019-05-26T05:22:30.444Z,24.47
2019-05-26T05:24:57.185Z,26.10
2019-05-26T05:27:24.188Z,21.15
2019-05-26T05:29:50.673Z,24.90
2019-05-26T05:32:17.340Z,24.18
2019-05-26T05:34:43.935Z,25.80
2019-05-26T05:37:10.551Z,25.75
2019-05-26T05:39:37.134Z,24.82
2019-05-26T05:42:03.820Z,32.60
2019-05-26T05:47:16.055Z,23.77
2019-05-26T05:49:43.126Z,29.67
2019-05-26T05:52:10.413Z,29.00
2019-05-26T05:54:37.315Z,33.42
2019-05-26T05:57:03.968Z,25.48
2019-05-26T05:59:30.456Z,28.40
2019-05-26T06:01:56.990Z,30.20
2019-05-26T06:04:23.554Z,29.92
2019-05-26T06:06:50.290Z,34.00
2019-05-26T06:09:17.161Z,34.05
2019-05-26T06:11:43.824Z,26.75
2019-05-26T06:14:11.393Z,28.92
2019-05-26T06:24:04.908Z,29.72
2019-05-26T06:31:02.261Z,31.20
2019-05-26T06:37:49.453Z,31.95
2019-05-26T06:44:29.971Z,39.35
2019-05-26T06:47:41.249Z,32.13
2019-05-26T06:50:08.575Z,32.33
2019-05-26T06:52:37.307Z,33.23
2019-05-26T06:55:31.309Z,30.55
2019-05-26T07:02:15.724Z,28.32
2019-05-26T07:08:45.342Z,28.15
2019-05-26T07:11:12.537Z,30.50
2019-05-26T07:13:39.136Z,24.32
2019-05-26T07:16:05.993Z,25.23
2019-05-26T07:18:33.011Z,24.05
2019-05-26T07:21:03.489Z,25.77
2019-05-26T07:23:41.373Z,26.97
2019-05-26T07:26:11.283Z,27.48
2019-05-26T07:28:37.884Z,25.60
2019-05-26T07:31:04.606Z,27.00
2019-05-26T07:33:31.138Z,25.77
2019-05-26T07:35:57.853Z,26.23
2019-05-26T07:38:24.357Z,19.42
2019-05-26T07:40:50.931Z,19.75
2019-05-26T07:43:17.612Z,23.52
2019-05-26T07:45:44.371Z,18.20
2019-05-26T07:48:11.079Z,26.20
2019-05-26T07:50:37.769Z,21.50
2019-05-26T07:53:04.345Z,18.73
2019-05-26T07:55:33.187Z,18.75
2019-05-26T07:57:59.880Z,19.30
2019-05-26T08:00:26.665Z,21.95
2019-05-26T08:02:53.340Z,18.50
2019-05-26T08:05:19.938Z,16.32
2019-05-26T08:07:46.526Z,16.85
2019-05-26T08:10:15.934Z,14.43
2019-05-26T08:12:42.562Z,13.85
2019-05-26T08:15:09.602Z,18.65
2019-05-26T08:17:36.444Z,16.52
2019-05-26T08:20:10.108Z,48.45
2019-05-26T08:22:36.927Z,26.15
2019-05-26T08:25:06.293Z,18.87
2019-05-26T08:27:33.228Z,13.45
2019-05-26T08:29:59.713Z,20.62
2019-05-26T08:32:26.414Z,17.25
2019-05-26T08:34:52.943Z,17.82
2019-05-26T08:37:19.567Z,15.08
2019-05-26T08:39:48.650Z,16.67
2019-05-26T08:42:27.042Z,12.45
2019-05-26T08:44:44.184Z,9.15
2019-05-26T08:47:10.675Z,17.77
2019-05-26T08:49:37.191Z,14.38
2019-05-26T08:52:04.084Z,15.60
2019-05-26T08:54:30.519Z,16.07
2019-05-26T08:56:57.652Z,16.48
2019-05-26T08:59:24.578Z,16.15
2019-05-26T09:01:51.047Z,13.13
2019-05-26T09:04:17.944Z,11.22
2019-05-26T09:06:44.490Z,13.25
2019-05-26T09:09:11.256Z,12.58
2019-05-26T09:11:37.951Z,16.73
2019-05-26T09:14:04.636Z,12.00
2019-05-26T09:16:32.321Z,12.50
2019-05-26T09:18:58.818Z,16.15
2019-05-26T09:21:25.435Z,13.93
2019-05-26T09:23:51.897Z,12.43
2019-05-26T09:26:18.576Z,13.85
2019-05-26T09:28:45.256Z,12.37
2019-05-26T09:31:11.761Z,14.45
2019-05-26T09:33:38.234Z,12.65
2019-05-26T09:36:05.007Z,13.18
2019-05-26T09:38:31.961Z,14.10
2019-05-26T09:40:58.460Z,19.20
2019-05-26T09:43:25.019Z,13.43
2019-05-26T09:45:51.510Z,19.85
2019-05-26T09:48:17.993Z,12.07
2019-05-26T09:50:44.764Z,13.20
2019-05-26T09:53:11.270Z,16.97
2019-05-26T09:55:37.814Z,15.75
2019-05-26T09:58:05.837Z,11.50
2019-05-26T10:00:32.700Z,16.52
2019-05-26T10:02:59.306Z,8.63
2019-05-26T10:05:25.871Z,12.93
2019-05-26T10:07:52.665Z,13.68
2019-05-26T10:10:19.405Z,12.13
2019-05-26T10:12:46.234Z,11.75
2019-05-26T10:15:13.616Z,13.32
2019-05-26T10:17:40.859Z,18.92
2019-05-26T10:20:08.511Z,13.75
2019-05-26T10:22:35.441Z,10.38
2019-05-26T10:25:04.485Z,14.80
2019-05-26T10:27:31.100Z,11.68
2019-05-26T10:29:57.652Z,12.10
2019-05-26T10:32:24.245Z,13.25
2019-05-26T10:34:50.891Z,12.05
2019-05-26T10:37:17.541Z,5.97
2019-05-26T10:39:45.231Z,9.15
2019-05-26T10:42:11.972Z,10.03
2019-05-26T10:44:38.546Z,9.85
2019-05-26T10:47:05.125Z,12.07
2019-05-26T10:49:31.812Z,14.53
2019-05-26T10:51:58.439Z,10.90
2019-05-26T10:54:25.264Z,11.85
2019-05-26T10:56:51.853Z,10.13
2019-05-26T10:59:18.470Z,11.93
2019-05-26T11:01:44.960Z,9.85
2019-05-26T11:04:11.576Z,10.30
2019-05-26T11:06:37.990Z,11.25
2019-05-26T11:09:06.628Z,8.50
2019-05-26T11:11:33.670Z,9.73
2019-05-26T11:14:03.148Z,7.40
2019-05-26T11:16:28.964Z,8.50
2019-05-26T11:18:55.435Z,11.80
2019-05-26T11:21:22.161Z,10.45
2019-05-26T11:23:52.396Z,14.25
2019-05-26T11:26:19.054Z,7.30
2019-05-26T11:28:45.587Z,6.97
2019-05-26T11:31:12.315Z,10.88
2019-05-26T11:33:38.991Z,9.55
2019-05-26T11:36:05.657Z,7.42
2019-05-26T11:38:33.725Z,9.10
2019-05-26T11:41:00.551Z,7.08
2019-05-26T11:43:27.119Z,7.75
2019-05-26T11:45:53.739Z,5.25
2019-05-26T11:48:20.341Z,5.90
2019-05-26T11:50:47.287Z,4.60
2019-05-26T11:53:13.791Z,8.50
2019-05-26T11:55:42.209Z,10.43
2019-05-26T11:58:08.901Z,4.75
2019-05-26T12:00:35.551Z,9.95
2019-05-26T12:03:02.414Z,12.30
2019-05-26T12:05:29.124Z,8.95
2019-05-26T12:07:55.675Z,8.35
2019-05-26T12:10:22.193Z,7.00
2019-05-26T12:12:48.835Z,6.55
2019-05-26T12:15:16.053Z,4.75
2019-05-26T12:17:42.747Z,4.78
2019-05-26T12:20:10.075Z,9.28
2019-05-26T12:22:36.713Z,5.72
2019-05-26T12:25:06.341Z,7.28
2019-05-26T12:27:32.932Z,4.42
2019-05-26T12:29:59.646Z,5.62
2019-05-26T12:32:26.560Z,6.83
2019-05-26T12:34:53.202Z,4.70
2019-05-26T12:37:19.800Z,5.08
2019-05-26T12:39:46.321Z,6.53
2019-05-26T12:42:12.919Z,3.40
2019-05-26T12:44:48.944Z,5.15
2019-05-26T12:47:08.022Z,4.58
2019-05-26T12:49:34.646Z,8.53
2019-05-26T12:52:01.399Z,4.28
2019-05-26T12:54:27.898Z,6.75
2019-05-26T12:56:54.596Z,4.03
2019-05-26T12:59:21.262Z,4.17
2019-05-26T13:01:48.011Z,4.92
2019-05-26T13:04:14.615Z,6.75
2019-05-26T13:06:41.350Z,3.85
2019-05-26T13:09:10.336Z,9.10
2019-05-26T13:11:36.863Z,4.92
2019-05-26T13:14:03.836Z,4.03
2019-05-26T13:16:30.370Z,6.92
2019-05-26T13:18:56.900Z,5.55
2019-05-26T13:21:23.438Z,3.35
2019-05-26T13:23:50.164Z,4.17
2019-05-26T13:26:16.601Z,3.33
2019-05-26T13:28:43.509Z,4.30
2019-05-26T13:31:10.340Z,3.27
2019-05-26T13:33:36.946Z,5.72
2019-05-26T13:36:03.542Z,3.08
2019-05-26T13:38:30.196Z,3.10
2019-05-26T13:40:56.857Z,4.72
2019-05-26T13:43:23.392Z,6.95
2019-05-26T13:45:51.038Z,4.35
2019-05-26T13:48:17.837Z,5.30
2019-05-26T13:50:44.434Z,6.28
2019-05-26T13:53:10.977Z,6.92
2019-05-26T13:55:37.732Z,3.87
2019-05-26T13:58:04.447Z,3.40
2019-05-26T14:00:31.034Z,3.17
2019-05-26T14:02:57.658Z,3.05
2019-05-26T14:05:24.236Z,4.92
2019-05-26T14:07:59.607Z,6.40
2019-05-26T14:10:34.744Z,8.13
2019-05-26T14:13:01.768Z,4.90
2019-05-26T14:15:37.197Z,5.00
2019-05-26T14:17:57.485Z,8.45
2019-05-26T14:20:38.918Z,7.45
2019-05-26T14:23:06.953Z,5.28
2019-05-26T14:25:33.959Z,3.83
2019-05-26T14:28:00.852Z,7.17
2019-05-26T14:30:27.600Z,7.22
2019-05-26T14:32:54.242Z,6.67
2019-05-26T14:35:20.666Z,3.62
2019-05-26T14:37:47.279Z,3.95
2019-05-26T14:40:14.020Z,4.40
2019-05-26T14:42:40.599Z,4.60
2019-05-26T14:45:07.798Z,5.55
2019-05-26T14:47:34.513Z,5.17
2019-05-26T14:50:01.363Z,5.80
2019-05-26T14:52:28.110Z,3.92
2019-05-26T14:54:54.599Z,4.97
2019-05-26T14:57:21.279Z,4.55
2019-05-26T14:59:47.981Z,5.10
2019-05-26T15:02:14.582Z,5.35
2019-05-26T15:04:41.227Z,6.33
2019-05-26T15:07:07.845Z,5.15
2019-05-26T15:09:35.047Z,7.87
2019-05-26T15:12:01.805Z,6.72
2019-05-26T15:14:28.312Z,6.70
2019-05-26T15:16:54.826Z,8.60
2019-05-26T15:19:21.433Z,11.38
2019-05-26T15:21:47.870Z,6.67
2019-05-26T15:24:14.626Z,6.10
2019-05-26T15:26:41.105Z,7.75
2019-05-26T15:29:07.626Z,7.40
2019-05-26T15:31:34.275Z,5.15
2019-05-26T15:34:00.867Z,5.47
2019-05-26T15:36:27.300Z,7.70
2019-05-26T15:38:53.895Z,6.15
2019-05-26T15:41:20.429Z,9.28
2019-05-26T15:43:47.500Z,6.03
2019-05-26T15:46:24.643Z,6.45
2019-05-26T15:48:42.602Z,6.33
2019-05-26T15:51:09.114Z,5.97
2019-05-26T15:53:35.632Z,6.37
2019-05-26T15:56:02.357Z,10.80
2019-05-26T15:58:29.161Z,11.38
2019-05-26T16:00:55.741Z,5.97
2019-05-26T16:03:22.234Z,8.35
2019-05-26T16:05:48.992Z,8.45
2019-05-26T16:08:15.723Z,8.33
2019-05-26T16:10:42.187Z,5.87
2019-05-26T16:13:08.763Z,11.75
2019-05-26T16:15:35.388Z,6.42
2019-05-26T16:18:01.831Z,7.30
2019-05-26T16:20:28.424Z,6.08
2019-05-26T16:22:55.252Z,7.03
2019-05-26T16:25:21.901Z,8.60
2019-05-26T16:27:48.578Z,9.40
2019-05-26T16:30:15.625Z,8.98
2019-05-26T16:32:42.844Z,7.30
2019-05-26T16:35:09.711Z,7.78
2019-05-26T16:37:36.269Z,5.95
2019-05-26T16:40:06.091Z,7.83
2019-05-26T16:42:33.124Z,8.50
2019-05-26T16:44:59.622Z,7.97
2019-05-26T16:47:27.809Z,9.68
2019-05-26T16:49:54.239Z,10.40
2019-05-26T16:52:21.077Z,14.98
2019-05-26T16:54:47.570Z,7.83
2019-05-26T16:57:14.166Z,7.95
2019-05-26T16:59:40.709Z,10.03
2019-05-26T17:02:07.424Z,7.10
2019-05-26T17:04:33.971Z,104.30
2019-05-26T17:07:00.408Z,10.98
2019-05-26T17:09:28.257Z,8.95
2019-05-26T17:11:54.819Z,6.80
2019-05-26T17:14:21.462Z,9.03
2019-05-26T17:16:48.125Z,10.28
2019-05-26T17:19:14.600Z,7.00
2019-05-26T17:21:41.157Z,6.78
2019-05-26T17:24:07.953Z,7.58
2019-05-26T17:26:34.635Z,8.98
2019-05-26T17:29:03.092Z,9.73
2019-05-26T17:31:29.527Z,11.63
2019-05-26T17:33:56.097Z,8.90
2019-05-26T17:36:22.748Z,7.80
2019-05-26T17:38:49.472Z,7.55
2019-05-26T17:41:16.121Z,12.45
2019-05-26T17:43:42.678Z,13.55
2019-05-26T17:46:09.307Z,6.83
2019-05-26T17:48:35.861Z,7.70
2019-05-26T17:51:02.531Z,11.05
2019-05-26T17:53:29.164Z,8.08
2019-05-26T17:55:55.877Z,8.83
2019-05-26T17:58:22.424Z,9.75
2019-05-26T18:00:49.458Z,13.70
2019-05-26T18:03:16.251Z,10.50
2019-05-26T18:05:43.026Z,9.98
2019-05-26T18:08:09.559Z,9.93
2019-05-26T18:10:36.416Z,13.00
2019-05-26T18:13:03.459Z,10.03
2019-05-26T18:15:30.047Z,14.20
2019-05-26T18:17:56.691Z,13.03
2019-05-26T18:20:23.420Z,15.13
2019-05-26T18:22:50.178Z,14.03
2019-05-26T18:25:16.844Z,10.08
2019-05-26T18:27:44.143Z,10.80
2019-05-26T18:30:11.553Z,16.12
2019-05-26T18:32:38.166Z,11.43
2019-05-26T18:35:06.723Z,23.52
2019-05-26T18:37:33.457Z,15.08
2019-05-26T18:40:00.434Z,15.28
2019-05-26T18:42:27.218Z,14.70
2019-05-26T18:44:53.895Z,12.47
2019-05-26T18:47:20.706Z,13.32
2019-05-26T18:49:47.331Z,13.65
2019-05-26T18:52:14.185Z,16.62
2019-05-26T18:54:40.748Z,14.75
2019-05-26T18:57:08.800Z,16.80
2019-05-26T18:59:35.694Z,15.00
2019-05-26T19:02:03.483Z,14.73
2019-05-26T19:04:30.181Z,18.90
2019-05-26T19:06:57.138Z,22.02
2019-05-26T19:09:23.858Z,13.65
2019-05-26T19:11:51.049Z,17.52
2019-05-26T19:14:17.814Z,17.32
2019-05-26T19:16:44.581Z,13.25
2019-05-26T19:19:11.034Z,16.32
2019-05-26T19:21:37.729Z,17.15
2019-05-26T19:24:04.375Z,19.17
2019-05-26T19:26:30.846Z,17.57
2019-05-26T19:28:57.520Z,18.95
2019-05-26T19:31:24.077Z,20.12
2019-05-26T19:33:50.839Z,12.58
2019-05-26T19:36:17.730Z,15.25
2019-05-26T19:38:44.721Z,13.80
2019-05-26T19:41:13.139Z,11.63
2019-05-26T19:43:39.845Z,19.07
2019-05-26T19:46:06.606Z,16.23
2019-05-26T19:48:37.049Z,17.45
2019-05-26T19:51:01.701Z,15.43
2019-05-26T19:53:28.250Z,13.35
2019-05-26T19:55:54.943Z,11.80
2019-05-26T19:58:21.835Z,12.30
2019-05-26T20:00:48.473Z,11.43
2019-05-26T20:03:15.398Z,12.58
2019-05-26T20:05:44.000Z,13.53
2019-05-26T20:08:10.708Z,11.60
2019-05-26T20:10:37.649Z,13.28
2019-05-26T20:13:04.531Z,14.00
2019-05-26T20:15:31.353Z,13.95
2019-05-26T20:17:58.628Z,11.38
2019-05-26T20:20:25.558Z,12.18
2019-05-26T20:22:52.271Z,13.55
2019-05-26T20:25:19.171Z,15.88
2019-05-26T20:27:46.060Z,22.80
2019-05-26T20:30:14.962Z,12.88
2019-05-26T20:32:41.810Z,11.90
2019-05-26T20:35:10.002Z,11.38
2019-05-26T20:37:38.561Z,12.95
2019-05-26T20:40:09.437Z,11.60
2019-05-26T20:42:36.018Z,13.78
2019-05-26T20:45:08.045Z,13.95
2019-05-26T20:47:34.590Z,13.70
2019-05-26T20:50:01.765Z,13.53
2019-05-26T20:52:29.903Z,15.18
2019-05-26T20:54:56.583Z,14.40
2019-05-26T20:57:23.211Z,12.82
2019-05-26T20:59:49.914Z,15.83
2019-05-26T21:02:16.644Z,13.28
2019-05-26T21:04:43.148Z,14.47
2019-05-26T21:07:09.856Z,13.78
2019-05-26T21:09:36.336Z,12.98
2019-05-26T21:12:03.360Z,13.22
2019-05-26T21:14:30.116Z,14.20
2019-05-26T21:16:56.628Z,16.37
2019-05-26T21:19:23.179Z,12.78
2019-05-26T21:21:49.991Z,16.05
2019-05-26T21:24:16.802Z,15.23
2019-05-26T21:26:43.361Z,17.48
2019-05-26T21:29:10.137Z,14.53
2019-05-26T21:31:36.839Z,11.75
2019-05-26T21:34:03.782Z,17.00
2019-05-26T21:36:30.397Z,12.20
2019-05-26T21:38:57.284Z,12.93
2019-05-26T21:42:17.345Z,13.62
2019-05-26T21:45:13.121Z,17.57
2019-05-26T21:47:39.947Z,11.35
2019-05-26T21:50:11.367Z,13.25
2019-05-26T22:13:39.383Z,16.15
2019-05-26T22:19:43.133Z,12.23
2019-05-26T22:22:10.013Z,10.72
2019-05-26T22:24:47.649Z,13.28
2019-05-26T22:27:14.401Z,14.38
2019-05-26T22:33:21.853Z,11.33
2019-05-26T22:35:48.881Z,15.43
2019-05-26T22:38:15.699Z,13.38
2019-05-26T22:40:42.343Z,13.50
2019-05-26T22:43:12.560Z,10.93
2019-05-26T22:57:20.426Z,12.07
2019-05-26T23:00:09.589Z,12.37
2019-05-26T23:02:36.685Z,14.03
2019-05-26T23:31:01.271Z,12.53
2019-05-26T23:36:58.759Z,14.28
2019-05-26T23:39:25.648Z,12.63
